Time;durP1;ratioP1;P1;durP2;ratioP2;P2;SDS_P1;SDS_P2;PMS_P1;PMS_P2;Temp;Humidity;BMP_temperature;BMP_pressure;BME280_temperature;BME280_humidity;BME280_pressure;Samples;Min_cycle;Max_cycle;Signal;HPM_P1;HPM_P2
2022/02/25 00:00:32;;;;;;;;;;;;;;;;;;5073084;28;19951;-75
2022/02/25 00:02:59;;;;;;;;;;;;;;;;;;5072757;28;20334;-75
2022/02/25 00:05:26;;;;;;;;;;;;;;;;;;5073757;28;19920;-74
2022/02/25 00:07:53;;;;;;;;;;;;;;;;;;5073289;28;20388;-75
2022/02/25 00:10:19;;;;;;;;;;;;;;;;;;5054922;28;19989;-74
2022/02/25 00:12:47;;;;;;;;;;;;;;;;;;5070160;28;19970;-75
2022/02/25 00:15:13;;;;;;;;;;;;;;;;;;5073927;28;19966;-74
2022/02/25 00:17:40;;;;;;;;;;;;;;;;;;5062894;28;19920;-75
2022/02/25 00:20:07;;;;;;;;;;;;;;;;;;5054113;28;19971;-74
2022/02/25 00:22:33;;;;;;;;;;;;;;;;;;5054725;28;19928;-74
2022/02/25 00:24:59;;;;;;;;;;;;;;;;;;5069774;28;19920;-74
2022/02/25 00:27:26;;;;;;;;;;;;;;;;;;5073809;28;20210;-75
2022/02/25 00:29:55;;;;;;;;;;;;;;;;;;5072089;28;19952;-75
2022/02/25 00:32:22;;;;;;;;;;;;;;;;;;5073434;28;20332;-74
2022/02/25 00:34:49;;;;;;;;;;;;;;;;;;5071621;28;19970;-74
2022/02/25 00:37:16;;;;;;;;;;;;;;;;;;5065431;28;19970;-74
2022/02/25 00:39:43;;;;;;;;;;;;;;;;;;5072260;28;19997;-75
2022/02/25 00:42:12;;;;;;;;;;;;;;;;;;5052262;28;19921;-75
2022/02/25 00:44:39;;;;;;;;;;;;;;;;;;5063546;28;19963;-75
2022/02/25 00:47:05;;;;;;;;;;;;;;;;;;5071922;28;19920;-74
2022/02/25 00:49:32;;;;;;;;;;;;;;;;;;5066460;28;19920;-75
2022/02/25 00:52:01;;;;;;;;;;;;;;;;;;5072170;28;19925;-75
2022/02/25 00:54:27;;;;;;;;;;;;;;;;;;5064011;28;19928;-75
2022/02/25 00:56:54;;;;;;;;;;;;;;;;;;5059843;28;19921;-75
2022/02/25 00:59:20;;;;;;;;;;;;;;;;;;5053325;28;19964;-76
2022/02/25 01:01:47;;;;;;;;;;;;;;;;;;5052688;28;20348;-75
2022/02/25 01:04:14;;;;;;;;;;;;;;;;;;5052264;28;19921;-75
2022/02/25 01:06:40;;;;;;;;;;;;;;;;;;5062910;28;19927;-74
2022/02/25 01:09:07;;;;;;;;;;;;;;;;;;5071598;28;19959;-75
2022/02/25 01:11:33;;;;;;;;;;;;;;;;;;5073725;28;19929;-75
2022/02/25 01:14:00;;;;;;;;;;;;;;;;;;5076009;28;19956;-74
2022/02/25 01:16:26;;;;;;;;;;;;;;;;;;5075994;28;19942;-75
2022/02/25 01:18:53;;;;;;;;;;;;;;;;;;5075951;28;19971;-75
2022/02/25 01:21:21;;;;;;;0.70;0.63;;;;;;;;;;5074941;28;20206;-75
2022/02/25 01:23:47;;;;;;;;;;;;;;;;;;5062512;28;20482;-75
2022/02/25 01:26:14;;;;;;;;;;;;;;;;;;5075247;28;19973;-74
2022/02/25 01:28:40;;;;;;;;;;;;;;;;;;5076909;28;19924;-75
2022/02/25 01:31:07;;;;;;;;;;;;;;;;;;5076510;28;19948;-74
2022/02/25 01:33:34;;;;;;;;;;;;;;;;;;5073454;28;20376;-76
2022/02/25 01:36:00;;;;;;;;;;;;;;;;;;5075705;28;20018;-76
2022/02/25 01:38:27;;;;;;;;;;;;;;;;;;5066960;28;19956;-74
2022/02/25 01:40:54;;;;;;;;;;;;;;;;;;5066730;28;20329;-75
2022/02/25 01:43:21;;;;;;;;;;;;;;;;;;5074387;28;19927;-75
2022/02/25 01:45:48;;;;;;;;;;;;;;;;;;5076990;28;19920;-75
2022/02/25 01:48:14;;;;;;;;;;;;;;;;;;5063122;28;19920;-75
2022/02/25 01:50:41;;;;;;;;;;;;;;;;;;5055409;28;19966;-75
2022/02/25 01:53:08;;;;;;;;;;;;;;;;;;5057422;28;20292;-75
2022/02/25 01:55:39;;;;;;;;;;;;;;;;;;5063135;28;19921;-76
2022/02/25 01:58:14;;;;;;;;;;;;;;;;;;5055342;28;20377;-75
2022/02/25 02:00:46;;;;;;;;;;;;;;;;;;5054673;28;19927;-75
2022/02/25 02:03:15;;;;;;;;;;;;;;;;;;5039827;28;20360;-75
2022/02/25 02:05:44;;;;;;;;;;;;;;;;;;5063661;28;19927;-76
2022/02/25 02:08:12;;;;;;;;;;;;;;;;;;5075313;28;19994;-75
2022/02/25 02:10:44;;;;;;;;;;;;;;;;;;5074930;28;19920;-75
2022/02/25 02:13:12;;;;;;;;;;;;;;;;;;5072970;28;19924;-75
2022/02/25 02:15:41;;;;;;;;;;;;;;;;;;5059557;28;19927;-75
2022/02/25 02:18:09;;;;;;;;;;;;;;;;;;5055228;28;19975;-75
2022/02/25 02:20:36;;;;;;;;;;;;;;;;;;5055224;28;20377;-75
2022/02/25 02:23:04;;;;;;;;;;;;;;;;;;5065111;28;19921;-74
2022/02/25 02:25:31;;;;;;;;;;;;;;;;;;5073174;28;20301;-75
2022/02/25 02:28:18;;;;;;;;;;;;;;;;;;5055870;28;19927;-75
2022/02/25 02:30:47;;;;;;;;;;;;;;;;;;5055102;28;19924;-76
2022/02/25 02:33:17;;;;;;;;;;;;;;;;;;5070672;28;19920;-75
2022/02/25 02:35:46;;;;;;;;;;;;;;;;;;5075880;28;20273;-76
2022/02/25 02:38:16;;;;;;;;;;;;;;;;;;5074724;28;19927;-76
2022/02/25 02:40:45;;;;;;;;;;;;;;;;;;5073207;28;19927;-76
2022/02/25 02:43:13;;;;;;;;;;;;;;;;;;5070613;28;19924;-76
2022/02/25 02:45:41;;;;;;;;;;;;;;;;;;5063963;28;19927;-76
2022/02/25 02:48:08;;;;;;;;;;;;;;;;;;5054247;28;20487;-76
2022/02/25 02:50:37;;;;;;;;;;;;;;;;;;5064068;28;20366;-76
2022/02/25 02:53:08;;;;;;;;;;;;;;;;;;5057164;28;19974;-75
2022/02/25 02:55:36;;;;;;;;;;;;;;;;;;5070955;28;19973;-75
2022/02/25 02:58:07;;;;;;;;;;;;;;;;;;5073833;28;19928;-75
2022/02/25 03:00:37;;;;;;;;;;;;;;;;;;5073943;28;19920;-76
2022/02/25 03:03:06;;;;;;;;;;;;;;;;;;5074321;28;19920;-75
2022/02/25 03:05:32;;;;;;;;;;;;;;;;;;5075564;28;19928;-75
2022/02/25 03:07:59;;;;;;;;;;;;;;;;;;5073246;28;20380;-75
2022/02/25 03:10:25;;;;;;;;;;;;;;;;;;5074796;28;19925;-76
2022/02/25 03:12:53;;;;;;;;;;;;;;;;;;5074918;28;20395;-75
2022/02/25 03:15:19;;;;;;;;;;;;;;;;;;5073300;28;19920;-75
2022/02/25 03:17:46;;;;;;;;;;;;;;;;;;5073334;28;19966;-76
2022/02/25 03:20:13;;;;;;;;;;;;;;;;;;5075191;28;19924;-77
2022/02/25 03:22:39;;;;;;;;;;;;;;;;;;5070051;28;19926;-76
2022/02/25 03:25:06;;;;;;;;;;;;;;;;;;5057142;28;19920;-75
2022/02/25 03:27:32;;;;;;;;;;;;;;;;;;5058552;28;19968;-76
2022/02/25 03:29:59;;;;;;;;;;;;;;;;;;5071179;28;19975;-76
2022/02/25 03:32:25;;;;;;;;;;;;;;;;;;5071161;28;19920;-76
2022/02/25 03:34:52;;;;;;;;;;;;;;;;;;5059452;28;19928;-76
2022/02/25 03:37:19;;;;;;;;;;;;;;;;;;5066894;28;20377;-76
2022/02/25 03:39:45;;;;;;;;;;;;;;;;;;5064232;28;19921;-76
2022/02/25 03:42:12;;;;;;;;;;;;;;;;;;5054686;28;19920;-76
2022/02/25 03:44:38;;;;;;;;;;;;;;;;;;5064570;28;19920;-76
2022/02/25 03:47:05;;;;;;;;;;;;;;;;;;5072495;28;19971;-76
2022/02/25 03:49:31;;;;;;;;;;;;;;;;;;5072516;28;20340;-75
2022/02/25 03:51:58;;;;;;;;;;;;;;;;;;5052782;28;20378;-76
2022/02/25 03:54:24;;;;;;;;;;;;;;;;;;5037704;28;20061;-75
2022/02/25 03:56:50;;;;;;;;;;;;;;;;;;5053350;28;19924;-76
2022/02/25 03:59:21;;;;;;;;;;;;;;;;;;5053290;28;19921;-75
2022/02/25 04:01:52;;;;;;;;;;;;;;;;;;5054329;28;19924;-76
2022/02/25 04:04:18;;;;;;;;;;;;;;;;;;5066022;28;20357;-75
2022/02/25 04:06:45;;;;;;;;;;;;;;;;;;5074508;28;20404;-76
2022/02/25 04:09:12;;;;;;;;;;;;;;;;;;5072905;28;20337;-75
2022/02/25 04:11:38;;;;;;;;;;;;;;;;;;5072486;28;20051;-76
2022/02/25 04:14:05;;;;;;;;;;;;;;;;;;5073994;28;19924;-76
2022/02/25 04:16:31;;;;;;;;;;;;;;;;;;5069468;28;19920;-76
2022/02/25 04:18:58;;;;;;;;;;;;;;;;;;5056006;28;19929;-76
2022/02/25 04:21:27;;;;;;;;;;;;;;;;;;5054304;28;19927;-76
2022/02/25 04:23:56;;;;;;;;;;;;;;;;;;5052980;28;19920;-76
2022/02/25 04:26:23;;;;;;;;;;;;;;;;;;5054979;28;19959;-76
2022/02/25 04:28:50;;;;;;;;;;;;;;;;;;5052275;28;19925;-76
2022/02/25 04:31:17;;;;;;;;;;;;;;;;;;5053996;28;19927;-75
2022/02/25 04:33:43;;;;;;;;;;;;;;;;;;5073218;28;19924;-76
2022/02/25 04:36:10;;;;;;;;;;;;;;;;;;5073620;28;20423;-75
2022/02/25 04:38:36;;;;;;;;;;;;;;;;;;5065841;28;19920;-76
2022/02/25 04:41:02;;;;;;;;;;;;;;;;;;5060449;28;19920;-75
2022/02/25 04:43:29;;;;;;;;;;;;;;;;;;5062225;28;19921;-76
2022/02/25 04:45:55;;;;;;;;;;;;;;;;;;5067386;28;20086;-76
2022/02/25 04:48:22;;;;;;;;;;;;;;;;;;5040835;28;19956;-76
2022/02/25 04:50:48;;;;;;;;;;;;;;;;;;5057947;28;20289;-76
2022/02/25 04:53:16;;;;;;;;;;;;;;;;;;5057987;28;19928;-76
2022/02/25 04:55:46;;;;;;;;;;;;;;;;;;5056968;28;19921;-76
2022/02/25 04:58:13;;;;;;;;;;;;;;;;;;5056453;28;19921;-75
2022/02/25 05:00:40;;;;;;;;;;;;;;;;;;5069596;28;19931;-76
2022/02/25 05:03:08;;;;;;;;;;;;;;;;;;5060137;28;19920;-76
2022/02/25 05:05:35;;;;;;;;;;;;;;;;;;5077397;28;20464;-76
2022/02/25 05:08:01;;;;;;;;;;;;;;;;;;5077091;28;19924;-77
2022/02/25 05:10:28;;;;;;;;;;;;;;;;;;5076653;28;19952;-76
2022/02/25 05:12:54;;;;;;;;;;;;;;;;;;5076966;28;20338;-77
2022/02/25 05:20:52;;;;;;;;;;;;;;;;;;5058681;28;20218;-76
2022/02/25 05:23:19;;;;;;;;;;;;;;;;;;5059045;28;19920;-77
2022/02/25 05:25:45;;;;;;;;;;;;;;;;;;5055886;28;19921;-78
2022/02/25 05:28:12;;;;;;;;;;;;;;;;;;5055029;28;20039;-77
2022/02/25 05:30:40;;;;;;;;;;;;;;;;;;5058989;28;19921;-78
2022/02/25 05:33:07;;;;;;;;;;;;;;;;;;5074696;28;19921;-77
2022/02/25 05:35:33;;;;;;;;;;;;;;;;;;5075948;28;19981;-77
2022/02/25 05:38:00;;;;;;;;;;;;;;;;;;5074972;28;19927;-77
2022/02/25 05:40:26;;;;;;;;;;;;;;;;;;5054263;28;19921;-77
2022/02/25 05:42:54;;;;;;;;;;;;;;;;;;5055004;28;19920;-77
2022/02/25 05:45:20;;;;;;;;;;;;;;;;;;5073962;28;20363;-77
2022/02/25 05:47:47;;;;;;;;;;;;;;;;;;5077127;28;19947;-78
2022/02/25 05:50:13;;;;;;;;;;;;;;;;;;5073458;28;19924;-77
2022/02/25 05:52:40;;;;;;;;;;;;;;;;;;5056153;28;19921;-78
2022/02/25 05:55:11;;;;;;;;;;;;;;;;;;5069445;28;19920;-77
2022/02/25 05:57:38;;;;;;;;;;;;;;;;;;5064601;28;19947;-76
2022/02/25 06:00:05;;;;;;;;;;;;;;;;;;5071919;28;19920;-77
2022/02/25 06:02:38;;;;;;;;;;;;;;;;;;5075690;28;19920;-77
2022/02/25 06:05:04;;;;;;;;;;;;;;;;;;5077262;28;19970;-78
2022/02/25 06:07:35;;;;;;;;;;;;;;;;;;5064733;28;19920;-78
2022/02/25 06:10:01;;;;;;;;;;;;;;;;;;5060664;28;19920;-78
2022/02/25 06:12:28;;;;;;;;;;;;;;;;;;5075129;28;19931;-77
2022/02/25 06:14:57;;;;;;;;;;;;;;;;;;5075842;28;19920;-78
2022/02/25 06:17:23;;;;;;;;;;;;;;;;;;5074959;28;19978;-77
2022/02/25 06:19:53;;;;;;;;;;;;;;;;;;5073163;28;20288;-78
2022/02/25 06:22:20;;;;;;;;;;;;;;;;;;5039296;28;19920;-78
2022/02/25 06:24:46;;;;;;;;;;;;;;;;;;5058190;28;19928;-79
2022/02/25 06:27:13;;;;;;;;;;;;;;;;;;5065681;28;19943;-78
2022/02/25 06:29:39;;;;;;;;;;;;;;;;;;5076590;28;19924;-77
2022/02/25 06:32:05;;;;;;;;;;;;;;;;;;5074937;28;19920;-78
2022/02/25 06:34:35;;;;;;;;;;;;;;;;;;5067081;28;19955;-77
2022/02/25 06:37:03;;;;;;;;;;;;;;;;;;5050388;28;19924;-77
2022/02/25 06:39:30;;;;;;;;;;;;;;;;;;5072306;28;19977;-79
2022/02/25 06:41:56;;;;;;;;;;;;;;;;;;5064106;28;19935;-77
2022/02/25 06:44:23;;;;;;;;;;;;;;;;;;5068981;28;20274;-77
2022/02/25 06:46:53;;;;;;;;;;;;;;;;;;5074260;28;20113;-76
2022/02/25 06:49:19;;;;;;;;;;;;;;;;;;5074695;28;20427;-76
2022/02/25 06:51:47;;;;;;;;;;;;;;;;;;5073663;28;19973;-76
2022/02/25 06:54:13;;;;;;;;;;;;;;;;;;5068006;28;19993;-76
2022/02/25 06:56:42;;;;;;;;;;;;;;;;;;5074510;28;19974;-76
2022/02/25 06:59:09;;;;;;;;;;;;;;;;;;5072475;28;20365;-77
2022/02/25 07:01:37;;;;;;;;;;;;;;;;;;5073636;28;20381;-76
2022/02/25 07:04:05;;;;;;;;;;;;;;;;;;5075157;28;19928;-76
2022/02/25 07:06:33;;;;;;;;;;;;;;;;;;5075773;28;19931;-76
2022/02/25 07:09:01;;;;;;;;;;;;;;;;;;5073834;28;20019;-77
2022/02/25 07:11:27;;;;;;;;;;;;;;;;;;5074103;28;19928;-77
2022/02/25 07:13:56;;;;;;;;;;;;;;;;;;5067006;28;19927;-77
2022/02/25 07:16:22;;;;;;;;;;;;;;;;;;5071724;28;19921;-77
2022/02/25 07:18:49;;;;;;;;;;;;;;;;;;5073409;28;19920;-77
2022/02/25 07:21:15;;;;;;;;;;;;;;;;;;5064436;28;19974;-77
2022/02/25 07:23:42;;;;;;;;;;;;;;;;;;5056662;28;20320;-76
2022/02/25 07:26:11;;;;;;;;;;;;;;;;;;5054209;28;20342;-76
2022/02/25 07:28:39;;;;;;;;;;;;;;;;;;5036863;28;19974;-76
2022/02/25 07:31:05;;;;;;;;;;;;;;;;;;5057461;28;19959;-75
2022/02/25 07:33:32;;;;;;;;;;;;;;;;;;5072705;28;19924;-77
2022/02/25 07:35:58;;;;;;;;;;;;;;;;;;5073357;28;19970;-75
2022/02/25 07:38:26;;;;;;;;;;;;;;;;;;5073436;28;19983;-76
2022/02/25 07:40:52;;;;;;;;;;;;;;;;;;5055296;28;19920;-75
2022/02/25 07:43:22;;;;;;;;;;;;;;;;;;5056923;28;19926;-75
2022/02/25 07:45:49;;;;;;;;;;;;;;;;;;5073343;28;20304;-73
2022/02/25 07:48:16;;;;;;;;;;;;;;;;;;5062262;28;19925;-77
2022/02/25 07:50:42;;;;;;;;;;;;;;;;;;5053980;28;19928;-77
2022/02/25 07:53:10;;;;;;;;;;;;;;;;;;5053614;28;19970;-75
2022/02/25 07:55:41;;;;;;;;;;;;;;;;;;5054238;28;19924;-75
2022/02/25 07:58:08;;;;;;;;;;;;;;;;;;5072947;28;20313;-76
2022/02/25 08:00:34;;;;;;;;;;;;;;;;;;5072316;28;20053;-75
2022/02/25 08:03:04;;;;;;;;;;;;;;;;;;5052577;28;19920;-76
2022/02/25 08:05:32;;;;;;;;;;;;;;;;;;5053423;28;20016;-76
2022/02/25 08:07:59;;;;;;;;;;;;;;;;;;5073846;28;19920;-76
2022/02/25 08:10:28;;;;;;;;;;;;;;;;;;5072670;28;19959;-76
2022/02/25 08:12:56;;;;;;;;;;;;;;;;;;5068829;28;19985;-76
2022/02/25 08:15:23;;;;;;;;;;;;;;;;;;5057104;28;19920;-76
2022/02/25 08:17:50;;;;;;;;;;;;;;;;;;5063518;28;20312;-75
2022/02/25 08:20:17;;;;;;;;;;;;;;;;;;5067351;28;19920;-76
2022/02/25 08:22:44;;;;;;;;;;;;;;;;;;5054046;28;19932;-78
2022/02/25 08:25:12;;;;;;;;;;;;;;;;;;5055550;28;19921;-76
2022/02/25 08:27:38;;;;;;;;;;;;;;;;;;5055933;28;20278;-76
2022/02/25 08:30:04;;;;;;;;;;;;;;;;;;5049178;28;19927;-76
2022/02/25 08:32:33;;;;;;;;;;;;;;;;;;5055978;28;19971;-77
2022/02/25 08:35:02;;;;;;;0.70;0.50;;;;;;;;;;5054124;28;20898;-76
2022/02/25 08:37:29;;;;;;;0.70;0.70;;;;;;;;;;5061705;28;20685;-77
2022/02/25 08:39:58;;;;;;;0.70;0.60;;;;;;;;;;5051322;28;20405;-77
2022/02/25 08:42:25;;;;;;;;;;;;;;;;;;5052442;28;20394;-77
2022/02/25 08:44:52;;;;;;;0.70;0.60;;;;;;;;;;5070243;28;20202;-76
2022/02/25 08:47:19;;;;;;;0.77;0.77;;;;;;;;;;5056030;28;20204;-79
2022/02/25 08:49:46;;;;;;;;;;;;;;;;;;5053346;28;20507;-77
2022/02/25 08:52:12;;;;;;;;;;;;;;;;;;5072674;28;19920;-76
2022/02/25 08:54:39;;;;;;;;;;;;;;;;;;5092345;28;19921;-75
2022/02/25 08:57:06;;;;;;;;;;;;;;;;;;5075479;28;19942;-75
2022/02/25 08:59:32;;;;;;;;;;;;;;;;;;5055906;28;19927;-75
2022/02/25 09:01:59;;;;;;;;;;;;;;;;;;5076904;28;20438;-75
2022/02/25 09:04:26;;;;;;;;;;;;;;;;;;5064889;28;19921;-75
2022/02/25 09:06:52;;;;;;;;;;;;;;;;;;5073592;28;20415;-78
2022/02/25 09:09:19;;;;;;;;;;;;;;;;;;5056140;28;19971;-77
2022/02/25 09:11:45;;;;;;;;;;;;;;;;;;5053848;28;19920;-77
2022/02/25 09:14:13;;;;;;;0.70;0.70;;;;;;;;;;5062622;28;20659;-77
2022/02/25 09:16:44;;;;;;;0.70;0.50;;;;;;;;;;5075070;28;20523;-76
2022/02/25 09:19:17;;;;;;;0.70;0.50;;;;;;;;;;5069802;28;20944;-79
2022/02/25 09:21:53;;;;;;;0.70;0.50;;;;;;;;;;5042055;28;20425;-76
2022/02/25 09:24:21;;;;;;;0.70;0.50;;;;;;;;;;5053105;28;20417;-77
2022/02/25 09:26:48;;;;;;;0.70;0.50;;;;;;;;;;5050996;28;20871;-77
2022/02/25 09:29:16;;;;;;;0.70;0.50;;;;;;;;;;5034152;28;20416;-77
2022/02/25 09:31:51;;;;;;;0.70;0.50;;;;;;;;;;5054616;28;20429;-80
2022/02/25 09:34:20;;;;;;;0.70;0.50;;;;;;;;;;5078000;28;20403;-78
2022/02/25 09:36:48;;;;;;;0.70;0.50;;;;;;;;;;5071152;28;20518;-78
2022/02/25 09:39:19;;;;;;;1.50;1.20;;;;;;;;;;5074837;28;20467;-79
2022/02/25 09:41:51;;;;;;;0.70;0.50;;;;;;;;;;5072856;28;20438;-78
2022/02/25 09:44:23;;;;;;;0.70;0.50;;;;;;;;;;5083288;28;20480;-78
2022/02/25 09:46:55;;;;;;;0.70;0.50;;;;;;;;;;5053915;28;20540;-78
2022/02/25 09:49:23;;;;;;;0.70;0.50;;;;;;;;;;5056193;28;20410;-78
2022/02/25 09:51:56;;;;;;;0.70;0.50;;;;;;;;;;5070537;28;20399;-80
2022/02/25 09:54:24;;;;;;;0.70;0.50;;;;;;;;;;5073975;28;20460;-76
2022/02/25 09:56:53;;;;;;;0.70;0.50;;;;;;;;;;5057810;28;20403;-79
2022/02/25 09:59:20;;;;;;;;;;;;;;;;;;5058432;28;20056;-78
2022/02/25 10:01:49;;;;;;;;;;;;;;;;;;5076016;28;19993;-79
2022/02/25 10:04:17;;;;;;;;;;;;;;;;;;5058664;28;19927;-79
2022/02/25 10:06:44;;;;;;;;;;;;;;;;;;5076361;28;19925;-78
2022/02/25 10:09:11;;;;;;;;;;;;;;;;;;5079316;28;19938;-79
2022/02/25 10:11:39;;;;;;;;;;;;;;;;;;5071407;28;19973;-79
2022/02/25 10:14:06;;;;;;;;;;;;;;;;;;5065599;28;19921;-78
2022/02/25 10:16:34;;;;;;;;;;;;;;;;;;5078148;28;20549;-79
2022/02/25 10:19:00;;;;;;;;;;;;;;;;;;5075987;28;19927;-79
2022/02/25 10:21:27;;;;;;;;;;;;;;;;;;5075194;28;20381;-78
2022/02/25 10:23:53;;;;;;;;;;;;;;;;;;5058203;28;19927;-75
2022/02/25 10:26:21;;;;;;;;;;;;;;;;;;5068778;28;20458;-77
2022/02/25 10:28:48;;;;;;;;;;;;;;;;;;5077146;28;19920;-80
2022/02/25 10:31:16;;;;;;;;;;;;;;;;;;5051473;28;20023;-80
2022/02/25 10:33:42;;;;;;;;;;;;;;;;;;5058638;28;19921;-79
2022/02/25 10:36:09;;;;;;;;;;;;;;;;;;5059667;28;20378;-80
2022/02/25 10:38:37;;;;;;;;;;;;;;;;;;5075696;28;19926;-77
2022/02/25 10:41:04;;;;;;;;;;;;;;;;;;5074725;28;20404;-81
2022/02/25 10:43:31;;;;;;;;;;;;;;;;;;5069053;28;19931;-81
2022/02/25 10:45:58;;;;;;;;;;;;;;;;;;5056039;28;20451;-84
2022/02/25 10:48:24;;;;;;;;;;;;;;;;;;5054376;28;19924;-82
2022/02/25 10:50:51;;;;;;;;;;;;;;;;;;5056763;28;20297;-80
2022/02/25 10:53:23;;;;;;;;;;;;;;;;;;5069086;28;20418;-81
2022/02/25 10:55:50;;;;;;;;;;;;;;;;;;5058604;28;20391;-78
2022/02/25 10:58:20;;;;;;;2.20;0.70;;;;;;;;;;5053133;28;20414;-81
2022/02/25 11:01:11;;;;;;;;;;;;;;;;;;5059745;28;20428;-80
2022/02/25 11:03:39;;;;;;;;;;;;;;;;;;5070729;28;20326;-76
2022/02/25 11:06:06;;;;;;;;;;;;;;;;;;5068452;28;19969;-82
2022/02/25 11:08:33;;;;;;;;;;;;;;;;;;5037347;28;20011;-80
2022/02/25 11:11:01;;;;;;;;;;;;;;;;;;5055798;28;20356;-77
2022/02/25 11:13:31;;;;;;;;;;;;;;;;;;5053869;28;19966;-83
2022/02/25 11:15:57;;;;;;;;;;;;;;;;;;5061110;28;19921;-81
2022/02/25 11:18:26;;;;;;;;;;;;;;;;;;5071993;28;20051;-79
2022/02/25 11:20:54;;;;;;;;;;;;;;;;;;5071547;28;19975;-79
2022/02/25 11:23:22;;;;;;;;;;;;;;;;;;5062113;28;19928;-81
2022/02/25 11:25:52;;;;;;;0.70;0.60;;;;;;;;;;5055812;28;20198;-78
2022/02/25 11:28:21;;;;;;;1.10;1.00;;;;;;;;;;5057728;28;20448;-80
2022/02/25 11:30:53;;;;;;;1.00;1.00;;;;;;;;;;5072343;28;20404;-76
2022/02/25 11:33:20;;;;;;;;;;;;;;;;;;5063578;28;20314;-77
2022/02/25 11:35:47;;;;;;;;;;;;;;;;;;5054653;28;19921;-78
2022/02/25 11:38:14;;;;;;;;;;;;;;;;;;5070349;28;19920;-76
2022/02/25 11:43:14;;;;;;;;;;;;;;;;;;5072577;28;19921;-79
2022/02/25 11:45:41;;;;;;;;;;;;;;;;;;5074733;28;19921;-78
2022/02/25 11:48:08;;;;;;;;;;;;;;;;;;5073951;28;20361;-79
2022/02/25 11:50:35;;;;;;;;;;;;;;;;;;5073577;28;20083;-78
2022/02/25 11:53:01;;;;;;;;;;;;;;;;;;5072885;28;20277;-78
2022/02/25 11:55:28;;;;;;;;;;;;;;;;;;5058166;28;19921;-78
2022/02/25 11:57:55;;;;;;;;;;;;;;;;;;5055616;28;19951;-80
2022/02/25 12:00:21;;;;;;;;;;;;;;;;;;5054094;28;20377;-77
2022/02/25 12:02:51;;;;;;;;;;;;;;;;;;5061715;28;19962;-78
2022/02/25 12:05:19;;;;;;;;;;;;;;;;;;5072436;28;19927;-79
2022/02/25 12:07:46;;;;;;;;;;;;;;;;;;5072734;28;20296;-82
2022/02/25 12:10:12;;;;;;;;;;;;;;;;;;5073007;28;19974;-77
2022/02/25 12:12:45;;;;;;;;;;;;;;;;;;5056311;28;19971;-80
2022/02/25 12:15:15;;;;;;;;;;;;;;;;;;5063055;28;19968;-82
2022/02/25 12:17:42;;;;;;;;;;;;;;;;;;5066807;28;20369;-79
2022/02/25 12:20:08;;;;;;;;;;;;;;;;;;5057727;28;20019;-80
2022/02/25 12:22:37;;;;;;;;;;;;;;;;;;5052497;28;19927;-84
2022/02/25 12:25:03;;;;;;;;;;;;;;;;;;5053327;28;19928;-79
2022/02/25 12:27:30;;;;;;;;;;;;;;;;;;5060172;28;19927;-78
2022/02/25 12:29:57;;;;;;;;;;;;;;;;;;5054060;28;19926;-77
2022/02/25 12:32:24;;;;;;;;;;;;;;;;;;5069237;28;20068;-77
2022/02/25 12:34:51;;;;;;;;;;;;;;;;;;5054613;28;19920;-78
2022/02/25 12:37:18;;;;;;;;;;;;;;;;;;5070690;28;19921;-79
2022/02/25 12:39:48;;;;;;;0.70;0.60;;;;;;;;;;5064821;28;20731;-80
2022/02/25 12:42:15;;;;;;;0.70;0.50;;;;;;;;;;5052834;28;20470;-79
2022/02/25 12:44:43;;;;;;;0.70;0.55;;;;;;;;;;5058510;28;20427;-79
2022/02/25 12:47:10;;;;;;;0.70;0.60;;;;;;;;;;5071616;28;20459;-77
2022/02/25 12:49:38;;;;;;;0.80;0.80;;;;;;;;;;5070367;28;20915;-78
2022/02/25 12:52:06;;;;;;;0.70;0.50;;;;;;;;;;5071304;28;20458;-76
2022/02/25 12:54:34;;;;;;;0.70;0.50;;;;;;;;;;5067496;28;20450;-79
2022/02/25 12:57:05;;;;;;;0.70;0.50;;;;;;;;;;5054412;28;20427;-79
2022/02/25 12:59:37;;;;;;;0.70;0.60;;;;;;;;;;5062582;28;20955;-76
2022/02/25 13:02:06;;;;;;;0.70;0.50;;;;;;;;;;5054356;28;20496;-75
2022/02/25 13:04:38;;;;;;;0.77;0.57;;;;;;;;;;5050379;28;20421;-73
2022/02/25 13:07:06;;;;;;;0.70;0.60;;;;;;;;;;5061839;28;20749;-73
2022/02/25 13:09:33;;;;;;;0.70;0.55;;;;;;;;;;5063639;28;20440;-72
2022/02/25 13:12:02;;;;;;;0.70;0.50;;;;;;;;;;5039948;28;20425;-70
2022/02/25 13:14:32;;;;;;;0.70;0.63;;;;;;;;;;5058466;28;20408;-71
2022/02/25 13:17:02;;;;;;;1.00;0.60;;;;;;;;;;5075919;28;20447;-73
2022/02/25 13:19:29;;;;;;;0.70;0.50;;;;;;;;;;5075763;28;20913;-73
2022/02/25 13:22:00;;;;;;;0.90;0.60;;;;;;;;;;5061238;28;20897;-72
2022/02/25 13:24:27;;;;;;;0.70;0.50;;;;;;;;;;5057806;28;20465;-72
2022/02/25 13:34:17;;;;;;;0.70;0.50;;;;;;;;;;5060862;28;20911;-74
2022/02/25 13:36:45;;;;;;;0.80;0.60;;;;;;;;;;5070575;28;20478;-73
2022/02/25 13:39:21;;;;;;;3.60;1.10;;;;;;;;;;5055147;28;20424;-74
2022/02/25 13:41:47;;;;;;;0.80;0.70;;;;;;;;;;5069347;28;20423;-73
2022/02/25 13:44:14;;;;;;;0.70;0.50;;;;;;;;;;5072199;28;20450;-74
2022/02/25 13:46:44;;;;;;;0.70;0.50;;;;;;;;;;5074215;28;20396;-74
2022/02/25 13:54:46;;;;;;;0.70;0.50;;;;;;;;;;5070366;28;20431;-75
2022/02/25 13:57:15;;;;;;;0.90;0.90;;;;;;;;;;5068267;28;20905;-74
2022/02/25 13:59:45;;;;;;;0.70;0.50;;;;;;;;;;5071484;28;21110;-73
2022/02/25 14:02:12;;;;;;;0.80;0.63;;;;;;;;;;5070446;28;20406;-72
2022/02/25 14:04:41;;;;;;;0.70;0.50;;;;;;;;;;5071809;28;20912;-73
2022/02/25 14:07:09;;;;;;;0.70;0.60;;;;;;;;;;5072893;28;20464;-72
2022/02/25 14:09:40;;;;;;;0.80;0.80;;;;;;;;;;5070556;28;20446;-74
2022/02/25 14:12:08;;;;;;;0.70;0.50;;;;;;;;;;5058380;28;20429;-73
2022/02/25 14:14:36;;;;;;;0.80;0.80;;;;;;;;;;5051914;28;20863;-75
2022/02/25 14:17:09;;;;;;;0.80;0.50;;;;;;;;;;5052102;28;20882;-72
2022/02/25 14:19:36;;;;;;;0.80;0.50;;;;;;;;;;5050702;28;20806;-72
2022/02/25 14:22:12;;;;;;;0.73;0.57;;;;;;;;;;5051145;28;20514;-72
2022/02/25 14:24:42;;;;;;;0.70;0.50;;;;;;;;;;5054512;28;20417;-73
2022/02/25 14:27:11;;;;;;;0.70;0.50;;;;;;;;;;5057994;28;20419;-73
2022/02/25 14:29:38;;;;;;;0.80;0.70;;;;;;;;;;5068521;28;20590;-74
2022/02/25 14:32:09;;;;;;;0.70;0.50;;;;;;;;;;5070726;28;20408;-73
2022/02/25 14:34:37;;;;;;;2.80;1.40;;;;;;;;;;5070191;28;20400;-74
2022/02/25 14:37:03;;;;;;;0.80;0.50;;;;;;;;;;5069683;28;20404;-73
2022/02/25 14:39:32;;;;;;;1.00;0.90;;;;;;;;;;5069219;28;20481;-74
2022/02/25 14:41:58;;;;;;;0.80;0.60;;;;;;;;;;5070926;28;20431;-74
2022/02/25 14:44:26;;;;;;;0.80;0.60;;;;;;;;;;5069471;28;20498;-73
2022/02/25 14:46:55;;;;;;;1.20;0.80;;;;;;;;;;5070243;28;20430;-73
2022/02/25 14:49:24;;;;;;;0.70;0.50;;;;;;;;;;5071653;28;20892;-73
2022/02/25 14:51:50;;;;;;;0.70;0.50;;;;;;;;;;5072032;28;20412;-74
2022/02/25 14:54:18;;;;;;;0.70;0.50;;;;;;;;;;5071956;28;20868;-76
2022/02/25 14:56:46;;;;;;;3.28;2.05;;;;;;;;;;5070736;28;20418;-74
2022/02/25 14:59:13;;;;;;;12.20;0.90;;;;;;;;;;5069827;28;20415;-74
2022/02/25 15:01:40;;;;;;;0.70;0.50;;;;;;;;;;5071218;28;20451;-74
2022/02/25 15:04:07;;;;;;;0.70;0.60;;;;;;;;;;5070980;28;20407;-73
2022/02/25 15:06:34;;;;;;;0.70;0.60;;;;;;;;;;5070029;28;20400;-73
2022/02/25 15:09:00;;;;;;;0.88;0.57;;;;;;;;;;5070209;28;20407;-72
2022/02/25 15:11:27;;;;;;;1.00;0.90;;;;;;;;;;5071154;28;20418;-72
2022/02/25 15:13:56;;;;;;;1.00;0.60;;;;;;;;;;5070081;28;20416;-72
2022/02/25 15:16:23;;;;;;;0.70;0.50;;;;;;;;;;5059586;28;20417;-73
2022/02/25 15:18:50;;;;;;;0.70;0.50;;;;;;;;;;5054930;28;20424;-73
2022/02/25 15:21:17;;;;;;;0.70;0.50;;;;;;;;;;5049834;28;20441;-73
2022/02/25 15:23:44;;;;;;;0.80;0.70;;;;;;;;;;5053835;28;20440;-73
2022/02/25 15:26:11;;;;;;;0.70;0.50;;;;;;;;;;5051428;28;20785;-73
2022/02/25 15:28:38;;;;;;;0.70;0.70;;;;;;;;;;5061916;28;20553;-73
2022/02/25 15:31:06;;;;;;;0.70;0.50;;;;;;;;;;5065502;28;20775;-73
2022/02/25 15:33:34;;;;;;;0.70;0.50;;;;;;;;;;5052770;28;20841;-73
2022/02/25 15:36:01;;;;;;;0.70;0.50;;;;;;;;;;5063943;28;20494;-73
2022/02/25 15:38:27;;;;;;;0.70;0.50;;;;;;;;;;5069837;28;20733;-73
2022/02/25 15:40:54;;;;;;;0.70;0.50;;;;;;;;;;5068128;28;20419;-74
2022/02/25 15:43:23;;;;;;;0.70;0.50;;;;;;;;;;5072565;28;20415;-73
2022/02/25 15:46:03;;;;;;;1.10;1.00;;;;;;;;;;5070374;28;20522;-73
2022/02/25 15:48:32;;;;;;;0.70;0.60;;;;;;;;;;5070273;28;21915;-73
2022/02/25 15:50:59;;;;;;;0.70;0.60;;;;;;;;;;5070952;28;20411;-73
2022/02/25 15:53:26;;;;;;;0.70;0.50;;;;;;;;;;5071374;28;20795;-73
2022/02/25 15:55:52;;;;;;;0.70;0.50;;;;;;;;;;5068796;28;20415;-73
2022/02/25 15:58:19;;;;;;;0.70;0.70;;;;;;;;;;5063421;28;20413;-75
2022/02/25 16:00:46;;;;;;;0.70;0.60;;;;;;;;;;5058757;28;20399;-77
2022/02/25 16:03:13;;;;;;;0.70;0.50;;;;;;;;;;5067424;28;20460;-76
2022/02/25 16:05:41;;;;;;;0.70;0.50;;;;;;;;;;5068388;28;20427;-75
2022/02/25 16:08:08;;;;;;;0.70;0.50;;;;;;;;;;5051188;28;20826;-74
2022/02/25 16:10:35;;;;;;;0.70;0.50;;;;;;;;;;5058483;28;20954;-75
2022/02/25 16:13:02;;;;;;;0.70;0.50;;;;;;;;;;5070707;28;20447;-76
2022/02/25 16:15:30;;;;;;;1.20;1.00;;;;;;;;;;5068743;28;20884;-75
2022/02/25 16:17:57;;;;;;;0.70;0.50;;;;;;;;;;5068084;28;20407;-76
2022/02/25 16:20:26;;;;;;;0.70;0.50;;;;;;;;;;5068597;28;20415;-74
2022/02/25 16:22:54;;;;;;;0.70;0.50;;;;;;;;;;5048657;28;20469;-74
2022/02/25 16:25:21;;;;;;;0.70;0.50;;;;;;;;;;5056586;28;20419;-74
2022/02/25 16:27:48;;;;;;;0.70;0.50;;;;;;;;;;5048986;28;20435;-75
2022/02/25 16:30:15;;;;;;;0.70;0.50;;;;;;;;;;5065519;28;20415;-76